createdAt,value
2018-06-28T00:01:48.266Z,98.30
2018-06-28T00:04:15.379Z,99.10
2018-06-28T00:06:42.468Z,99.50
2018-06-28T00:09:09.580Z,99.90
2018-06-28T00:14:21.084Z,99.90
2018-06-28T00:16:48.207Z,99.90
2018-06-28T00:21:48.107Z,99.90
2018-06-28T00:27:04.724Z,99.90
2018-06-28T00:29:40.232Z,99.90
2018-06-28T00:34:54.935Z,99.90
2018-06-28T00:37:22.060Z,99.80
2018-06-28T00:39:57.596Z,99.90
2018-06-28T00:42:24.703Z,99.70
2018-06-28T00:44:58.864Z,98.60
2018-06-28T00:47:26.848Z,98.80
2018-06-28T00:50:01.790Z,98.50
2018-06-28T00:52:28.888Z,98.50
2018-06-28T00:55:02.310Z,98.40
2018-06-28T00:57:30.407Z,98.10
2018-06-28T00:59:58.205Z,98.90
2018-06-28T01:10:07.011Z,99.90
2018-06-28T01:12:39.953Z,98.70
2018-06-28T01:15:07.688Z,98.10
2018-06-28T01:17:41.159Z,98.60
2018-06-28T01:22:50.313Z,99.00
2018-06-28T01:25:17.447Z,98.80
2018-06-28T01:30:47.658Z,99.90
2018-06-28T01:38:49.317Z,99.90
2018-06-28T01:41:20.688Z,99.90
2018-06-28T01:43:47.754Z,99.90
2018-06-28T01:46:29.650Z,99.90
2018-06-28T01:49:02.898Z,99.90
2018-06-28T01:51:30.038Z,99.90
2018-06-28T01:59:29.830Z,99.90
2018-06-28T02:02:00.316Z,99.90
2018-06-28T02:04:31.442Z,99.90
2018-06-28T02:07:08.417Z,99.90
2018-06-28T02:09:35.530Z,99.90
2018-06-28T02:14:29.859Z,99.90
2018-06-28T02:16:56.938Z,99.90
2018-06-28T02:19:24.982Z,99.90
2018-06-28T02:27:16.777Z,99.90
2018-06-28T02:40:48.088Z,99.90
2018-06-28T02:43:15.214Z,99.90
2018-06-28T02:45:49.343Z,99.90
2018-06-28T02:48:32.872Z,99.90
2018-06-28T02:53:58.721Z,99.90
2018-06-28T02:56:28.737Z,99.90
2018-06-28T02:59:13.021Z,99.90
2018-06-28T03:07:04.478Z,99.90
2018-06-28T03:09:35.404Z,99.90
2018-06-28T03:12:03.884Z,99.90
2018-06-28T03:14:31.000Z,99.90
2018-06-28T03:16:58.097Z,99.90
2018-06-28T03:19:42.192Z,99.90
2018-06-28T03:22:12.812Z,99.90
2018-06-28T03:24:46.451Z,99.90
2018-06-28T03:32:26.851Z,99.90
2018-06-28T03:35:04.878Z,99.90
2018-06-28T03:45:49.577Z,99.90
2018-06-28T03:48:17.405Z,99.90
2018-06-28T03:50:44.530Z,99.90
2018-06-28T03:53:12.572Z,99.90
2018-06-28T04:03:17.807Z,99.90
2018-06-28T04:13:21.199Z,99.80
2018-06-28T04:15:48.273Z,99.80
2018-06-28T04:18:15.296Z,99.90
2018-06-28T04:20:42.320Z,99.90
2018-06-28T04:23:16.039Z,99.90
2018-06-28T04:25:43.070Z,99.90
2018-06-28T04:28:12.751Z,99.90
2018-06-28T04:30:39.823Z,99.90
2018-06-28T04:33:06.844Z,99.90
2018-06-28T04:35:35.136Z,99.30
2018-06-28T04:38:02.210Z,98.80
2018-06-28T04:40:29.236Z,98.80
2018-06-28T04:42:56.280Z,98.80
2018-06-28T04:45:23.349Z,99.50
2018-06-28T04:47:50.371Z,99.30
2018-06-28T04:50:17.406Z,99.30
2018-06-28T04:55:20.640Z,98.80
2018-06-28T04:57:48.117Z,99.80
2018-06-28T05:02:52.415Z,99.00
2018-06-28T05:05:24.788Z,98.60
2018-06-28T05:20:57.668Z,99.90
2018-06-28T05:23:41.886Z,99.90
2018-06-28T05:26:16.623Z,97.40
2018-06-28T05:28:43.657Z,99.80
2018-06-28T05:31:10.656Z,99.90
2018-06-28T05:33:38.623Z,99.60
2018-06-28T05:36:05.712Z,99.90
2018-06-28T05:38:33.546Z,98.40
2018-06-28T05:41:01.288Z,99.40
2018-06-28T05:43:28.922Z,98.50
2018-06-28T05:45:57.251Z,99.90
2018-06-28T05:48:25.099Z,99.90
2018-06-28T05:50:52.549Z,99.70
2018-06-28T05:53:19.582Z,99.30
2018-06-28T05:55:46.665Z,98.40
2018-06-28T06:05:36.286Z,98.90
2018-06-28T06:08:03.284Z,99.00
2018-06-28T06:10:30.295Z,99.00
2018-06-28T06:12:57.376Z,98.20
2018-06-28T06:15:24.381Z,98.10
2018-06-28T06:20:31.001Z,97.60
2018-06-28T06:22:58.020Z,99.90
2018-06-28T06:25:25.074Z,99.90
2018-06-28T06:27:57.129Z,99.90
2018-06-28T06:30:29.582Z,99.90
2018-06-28T06:33:00.286Z,97.60
2018-06-28T06:35:28.716Z,98.00
2018-06-28T06:37:57.346Z,99.90
2018-06-28T06:43:03.668Z,99.90
2018-06-28T06:59:21.003Z,95.50
2018-06-28T07:01:52.824Z,95.70
2018-06-28T07:07:03.155Z,94.10
2018-06-28T07:09:31.636Z,95.80
2018-06-28T07:28:58.983Z,98.70
2018-06-28T07:31:28.705Z,99.80
2018-06-28T08:13:49.060Z,99.20
2018-06-28T08:19:08.990Z,99.20
2018-06-28T08:21:37.130Z,98.20
2018-06-28T08:26:49.059Z,96.90
2018-06-28T08:31:55.525Z,97.50
2018-06-28T08:34:39.435Z,98.80
2018-06-28T08:56:24.727Z,99.90
2018-06-28T08:58:58.067Z,98.40
2018-06-28T09:04:19.365Z,99.50
2018-06-28T11:10:53.878Z,91.80
2018-06-28T11:13:27.048Z,89.50
2018-06-28T11:15:57.801Z,90.90
2018-06-28T11:18:32.511Z,90.70
2018-06-28T11:21:01.513Z,88.30
2018-06-28T11:26:10.199Z,92.40
2018-06-28T11:28:38.692Z,89.10
2018-06-28T11:31:12.196Z,92.10
2018-06-28T11:58:24.317Z,87.90
2018-06-28T12:00:52.859Z,87.70
2018-06-28T12:14:33.740Z,86.30
2018-06-28T12:17:09.130Z,88.50
2018-06-28T12:19:52.458Z,88.10
2018-06-28T12:27:47.817Z,86.60
2018-06-28T12:30:30.162Z,83.30
2018-06-28T12:38:46.449Z,80.60
2018-06-28T13:00:45.494Z,80.00
2018-06-28T13:19:56.241Z,83.00
2018-06-28T13:22:31.285Z,85.40
2018-06-28T13:47:12.923Z,90.70
2018-06-28T14:11:43.254Z,93.30
2018-06-28T14:39:09.575Z,93.50
2018-06-28T14:41:41.201Z,93.30
2018-06-28T15:03:36.190Z,90.90
2018-06-28T15:11:43.402Z,87.20
2018-06-28T15:36:21.073Z,90.50
2018-06-28T15:44:21.396Z,93.50
2018-06-28T15:51:51.288Z,93.70
2018-06-28T15:54:26.650Z,94.50
2018-06-28T15:56:53.792Z,92.90
2018-06-28T15:59:24.202Z,93.00
2018-06-28T16:01:51.327Z,92.30
2018-06-28T16:04:18.621Z,93.30
2018-06-28T16:06:49.307Z,94.40
2018-06-28T16:09:23.026Z,93.80
2018-06-28T16:20:00.968Z,94.00
2018-06-28T16:22:28.092Z,94.40
2018-06-28T16:29:14.771Z,94.40
2018-06-28T16:31:41.878Z,95.60
2018-06-28T16:34:08.911Z,95.30
2018-06-28T16:39:19.332Z,94.70
2018-06-28T16:41:47.353Z,95.80
2018-06-28T16:44:14.826Z,95.70
2018-06-28T16:46:41.987Z,95.60
2018-06-28T16:49:10.143Z,96.90
2018-06-28T16:51:45.782Z,96.90
2018-06-28T16:54:12.899Z,97.70
2018-06-28T16:56:39.986Z,98.80
2018-06-28T16:59:07.100Z,98.80
2018-06-28T17:01:42.442Z,99.70
2018-06-28T17:04:10.436Z,99.10
2018-06-28T17:11:57.972Z,99.90
2018-06-28T17:14:39.056Z,99.90
2018-06-28T17:17:06.170Z,99.90
2018-06-28T17:19:37.355Z,99.90
2018-06-28T17:22:04.619Z,99.70
2018-06-28T17:24:39.663Z,98.10
2018-06-28T17:27:08.537Z,96.80
2018-06-28T17:34:44.406Z,96.30
2018-06-28T17:37:13.279Z,96.70
2018-06-28T17:39:40.469Z,93.90
2018-06-28T17:42:11.912Z,94.10
2018-06-28T17:44:38.928Z,95.60
2018-06-28T17:47:16.418Z,96.50
2018-06-28T17:52:12.222Z,91.40
2018-06-28T17:54:45.156Z,92.10
2018-06-28T17:59:47.591Z,91.00
2018-06-28T18:02:21.081Z,91.70
2018-06-28T18:07:25.661Z,93.60
2018-06-28T18:20:38.043Z,91.40
2018-06-28T18:35:10.073Z,90.90
2018-06-28T19:03:01.307Z,98.90
2018-06-28T19:05:29.004Z,98.50
2018-06-28T19:07:56.616Z,99.10
2018-06-28T19:10:24.783Z,94.80
2018-06-28T19:15:29.075Z,94.60
2018-06-28T19:20:33.731Z,96.10
2018-06-28T19:23:01.029Z,98.20
2018-06-28T19:25:29.975Z,97.30
2018-06-28T19:28:14.384Z,97.70
2018-06-28T19:30:45.099Z,97.80
2018-06-28T19:35:59.778Z,98.10
2018-06-28T19:38:31.917Z,98.70
2018-06-28T19:41:03.061Z,98.60
2018-06-28T19:46:13.395Z,98.60
2018-06-28T19:48:42.271Z,98.50
2018-06-28T19:51:09.781Z,97.50
2018-06-28T19:53:37.097Z,97.30
2018-06-28T19:56:04.722Z,96.70
2018-06-28T19:58:31.937Z,96.60
2018-06-28T20:00:59.065Z,96.90
2018-06-28T20:03:26.383Z,97.00
2018-06-28T20:05:53.530Z,96.40
2018-06-28T20:08:21.103Z,96.40
2018-06-28T20:10:48.238Z,97.30
2018-06-28T20:13:15.811Z,98.40
2018-06-28T20:15:42.861Z,98.00
2018-06-28T20:18:10.224Z,98.00
2018-06-28T20:20:37.784Z,98.40
2018-06-28T20:23:05.834Z,99.40
2018-06-28T20:25:32.919Z,99.60
2018-06-28T20:27:59.978Z,99.60
2018-06-28T20:30:27.038Z,99.40
2018-06-28T20:32:54.905Z,99.00
2018-06-28T20:35:21.887Z,99.30
2018-06-28T20:37:48.930Z,99.90
2018-06-28T20:40:15.937Z,99.90
2018-06-28T20:42:42.951Z,99.60
2018-06-28T20:45:10.995Z,99.70
2018-06-28T20:47:37.950Z,99.90
2018-06-28T20:50:04.966Z,99.30
2018-06-28T20:52:32.943Z,99.20
2018-06-28T20:57:27.052Z,99.20
2018-06-28T20:59:54.109Z,99.60
2018-06-28T21:09:53.956Z,99.10
2018-06-28T21:12:21.794Z,99.20
2018-06-28T21:14:52.799Z,99.50
2018-06-28T21:17:19.824Z,99.80
2018-06-28T21:19:46.860Z,99.90
2018-06-28T21:22:13.873Z,99.90
2018-06-28T21:24:40.894Z,99.90
2018-06-28T21:27:07.952Z,99.30
2018-06-28T21:29:42.286Z,98.60
2018-06-28T21:32:09.386Z,98.50
2018-06-28T21:34:36.429Z,98.40
2018-06-28T21:37:03.451Z,98.80
2018-06-28T21:39:30.547Z,97.90
2018-06-28T21:41:57.807Z,98.40
2018-06-28T21:44:25.012Z,99.20
2018-06-28T21:46:52.214Z,99.40
2018-06-28T21:49:19.214Z,99.40
2018-06-28T21:51:46.215Z,99.30
2018-06-28T21:54:14.097Z,99.80
2018-06-28T21:56:41.103Z,99.90
2018-06-28T21:59:08.118Z,99.90
2018-06-28T22:01:35.148Z,99.90
2018-06-28T22:04:02.164Z,99.80
2018-06-28T22:06:29.162Z,99.50
2018-06-28T22:08:56.206Z,99.30
2018-06-28T22:11:23.215Z,99.50
2018-06-28T22:13:50.231Z,99.80
2018-06-28T22:16:17.261Z,99.90
2018-06-28T22:18:44.250Z,99.70
2018-06-28T22:21:11.251Z,99.60
2018-06-28T22:23:38.300Z,99.70
2018-06-28T22:28:43.815Z,99.90
2018-06-28T22:31:10.821Z,99.90
2018-06-28T22:36:04.954Z,99.90
2018-06-28T22:38:31.996Z,99.90
2018-06-28T22:40:59.007Z,99.90
2018-06-28T22:43:26.061Z,99.90
2018-06-28T22:45:53.058Z,99.90
2018-06-28T22:48:20.055Z,99.90
2018-06-28T22:50:47.206Z,99.90
2018-06-28T22:53:14.253Z,99.90
2018-06-28T22:55:41.603Z,99.80
2018-06-28T23:00:48.750Z,99.60
2018-06-28T23:03:15.783Z,99.50
2018-06-28T23:05:42.772Z,99.00
2018-06-28T23:08:09.749Z,98.60
2018-06-28T23:10:36.760Z,98.20
2018-06-28T23:13:03.758Z,98.10
2018-06-28T23:15:30.757Z,97.90
2018-06-28T23:17:57.799Z,97.60
2018-06-28T23:20:24.803Z,98.00
2018-06-28T23:22:51.793Z,98.80
2018-06-28T23:25:18.826Z,99.10
2018-06-28T23:27:45.817Z,98.80
2018-06-28T23:30:12.832Z,99.50
2018-06-28T23:35:06.961Z,99.40
2018-06-28T23:37:33.958Z,99.70
2018-06-28T23:40:00.999Z,99.50
2018-06-28T23:42:27.993Z,99.90
2018-06-28T23:44:55.804Z,99.80
2018-06-28T23:47:22.846Z,99.90
2018-06-28T23:49:49.845Z,99.50
2018-06-28T23:52:16.844Z,99.60
2018-06-28T23:54:43.868Z,99.30
2018-06-28T23:57:10.868Z,99.90
